Time;durP1;ratioP1;P1;durP2;ratioP2;P2;SDS_P1;SDS_P2;PMS_P1;PMS_P2;Temp;Humidity;BMP_temperature;BMP_pressure;BME280_temperature;BME280_humidity;BME280_pressure;Samples;Min_cycle;Max_cycle;Signal;HPM_P1;HPM_P2
2022/05/08 00:00:58;;;;;;;;;;;;;;;11.34;64.00;96946.84;4892403;29;19971;-71
2022/05/08 00:03:24;;;;;;;;;;;;;;;11.30;64.12;96942.25;4884763;29;19950;-71
2022/05/08 00:05:50;;;;;;;;;;;;;;;11.27;64.56;96950.53;4886090;29;19963;-71
2022/05/08 00:08:16;;;;;;;;;;;;;;;11.22;64.53;96948.53;4890291;29;20020;-71
2022/05/08 00:10:41;;;;;;;;;;;;;;;11.19;64.68;96948.94;4888031;29;19998;-71
2022/05/08 00:13:09;;;;;;;;;;;;;;;11.16;65.01;96952.78;4889940;29;19962;-71
2022/05/08 00:15:35;;;;;;;;;;;;;;;11.13;64.64;96945.34;4893293;29;20430;-71
2022/05/08 00:18:01;;;;;;;;;;;;;;;11.10;65.12;96944.94;4889228;29;19951;-71
2022/05/08 00:20:27;;;;;;;;;;;;;;;11.06;65.41;96944.53;4889838;29;20514;-71
2022/05/08 00:22:53;;;;;;;;;;;;;;;11.03;65.36;96939.72;4888939;29;20025;-71
2022/05/08 00:25:19;;;;;;;;;;;;;;;10.99;65.55;96943.78;4884270;29;20017;-71
2022/05/08 00:27:45;;;;;;;;;;;;;;;10.95;65.36;96940.75;4891544;29;19952;-71
2022/05/08 00:30:11;;;;;;;;;;;;;;;10.92;65.87;96938.56;4889366;29;20019;-71
2022/05/08 00:32:37;;;;;;;;;;;;;;;10.90;65.89;96937.16;4889870;29;19965;-71
2022/05/08 00:35:03;;;;;;;;;;;;;;;10.88;66.29;96939.19;4884547;29;20387;-71
2022/05/08 00:37:29;;;;;;;;;;;;;;;10.85;65.73;96934.34;4874613;29;19963;-71
2022/05/08 00:39:55;;;;;;;;;;;;;;;10.82;66.49;96951.31;4889678;29;19968;-71
2022/05/08 00:42:21;;;;;;;;;;;;;;;10.81;66.18;96948.88;4888649;29;19963;-71
2022/05/08 00:44:47;;;;;;;;;;;;;;;10.79;66.22;96949.09;4885615;29;19967;-71
2022/05/08 00:47:12;;;;;;;;;;;;;;;10.76;66.33;96947.69;4888450;29;20005;-71
2022/05/08 00:49:38;;;;;;;;;;;;;;;10.75;66.54;96940.00;4889568;29;19959;-71
2022/05/08 00:52:04;;;;;;;;;;;;;;;10.72;66.60;96945.69;4894464;29;20019;-71
2022/05/08 00:54:31;;;;;;;;;;;;;;;10.69;67.42;96944.28;4886335;29;19963;-71
2022/05/08 00:56:57;;;;;;;;;;;;;;;10.67;67.15;96929.78;4889860;29;19957;-71
2022/05/08 00:59:24;;;;;;;;;;;;;;;10.62;67.34;96938.22;4884932;29;19973;-71
2022/05/08 01:01:50;;;;;;;;;;;;;;;10.59;67.02;96940.47;4887426;29;19950;-71
2022/05/08 01:04:16;;;;;;;;;;;;;;;10.54;66.73;96939.28;4889725;29;20004;-71
2022/05/08 01:06:43;;;;;;;;;;;;;;;10.54;67.22;96943.69;4889534;29;19967;-71
2022/05/08 01:09:09;;;;;;;;;;;;;;;10.52;67.25;96946.53;4890887;29;19957;-71
2022/05/08 01:11:35;;;;;;;;;;;;;;;10.49;67.18;96943.50;4890148;29;20411;-71
2022/05/08 01:14:01;;;;;;;;;;;;;;;10.46;67.50;96938.69;4893677;29;19962;-71
2022/05/08 01:16:27;;;;;;;;;;;;;;;10.44;67.43;96945.97;4890288;29;20452;-71
2022/05/08 01:18:53;;;;;;;;;;;;;;;10.41;67.23;96946.34;4888997;29;19959;-71
2022/05/08 01:21:23;;;;;;;;;;;;;;;10.38;67.21;96939.72;4884217;29;20453;-71
2022/05/08 01:23:49;;;;;;;;;;;;;;;10.35;67.76;96943.56;4879407;29;19962;-71
2022/05/08 01:26:21;;;;;;;;;;;;;;;10.31;67.80;96941.50;4879133;29;19995;-71
2022/05/08 01:28:47;;;;;;;;;;;;;;;10.27;68.04;96948.97;4879516;29;19959;-70
2022/05/08 01:31:13;;;;;;;;;;;;;;;10.26;67.47;96942.09;4879468;29;20436;-71
2022/05/08 01:33:39;;;;;;;;;;;;;;;10.22;67.50;96946.13;4879478;29;19946;-71
2022/05/08 01:36:05;;;;;;;;;;;;;;;10.19;68.12;96937.88;4882642;29;19964;-71
2022/05/08 01:38:31;;;;;;;;;;;;;;;10.15;68.15;96942.72;4882753;29;19959;-71
2022/05/08 01:41:03;;;;;;;;;;;;;;;10.12;68.13;96938.69;4882438;29;20033;-71
2022/05/08 01:43:32;;;;;;;;;;;;;;;10.08;69.22;96939.28;4883064;29;19970;-71
2022/05/08 01:45:58;;;;;;;;;;;;;;;10.04;68.88;96935.47;4882424;29;19960;-71
2022/05/08 01:48:25;;;;;;;;;;;;;;;10.02;69.36;96940.13;4882490;29;19970;-71
2022/05/08 01:50:52;;;;;;;;;;;;;;;9.98;68.91;96923.97;4881577;29;19966;-71
2022/05/08 01:53:23;;;;;;;;;;;;;;;9.96;68.81;96932.03;4882222;29;19957;-71
2022/05/08 01:55:55;;;;;;;;;;;;;;;9.95;69.27;96943.53;4882948;29;19949;-71
2022/05/08 01:58:22;;;;;;;;;;;;;;;9.93;69.51;96940.31;4882350;29;19970;-71
2022/05/08 02:00:49;;;;;;;;;;;;;;;9.92;69.35;96940.50;4882263;29;19968;-71
2022/05/08 02:03:15;;;;;;;;;;;;;;;9.87;69.45;96941.13;4882074;29;19956;-71
2022/05/08 02:05:42;;;;;;;;;;;;;;;9.84;69.26;96938.88;4882180;29;19957;-71
2022/05/08 02:08:08;;;;;;;;;;;;;;;9.82;70.24;96946.13;4881996;29;19984;-71
2022/05/08 02:10:34;;;;;;;;;;;;;;;9.81;69.65;96939.28;4882186;29;19968;-71
2022/05/08 02:13:00;;;;;;;;;;;;;;;9.79;69.34;96936.06;4881963;29;19994;-71
2022/05/08 02:15:29;;;;;;;;;;;;;;;9.78;69.60;96936.25;4882012;29;19972;-71
2022/05/08 02:17:59;;;;;;;;;;;;;;;9.77;69.52;96939.91;4882118;29;20042;-71
2022/05/08 02:20:28;;;;;;;;;;;;;;;9.73;69.59;96945.53;4881697;29;20454;-71
2022/05/08 02:22:54;;;;;;;;;;;;;;;9.70;69.28;96938.09;4881945;29;20037;-71
2022/05/08 02:25:20;;;;;;;;;;;;;;;9.69;69.90;96943.50;4881859;29;19963;-71
2022/05/08 02:27:49;;;;;;;;;;;;;;;9.66;70.24;96949.13;4881885;29;19962;-71
2022/05/08 02:30:16;;;;;;;;;;;;;;;9.63;70.15;96937.25;4881812;29;19961;-71
2022/05/08 02:32:42;;;;;;;;;;;;;;;9.61;69.96;96941.88;4881688;29;19957;-71
2022/05/08 02:35:12;;;;;;;;;;;;;;;9.60;70.22;96936.84;4881581;29;19969;-71
2022/05/08 02:37:38;;;;;;;;;;;;;;;9.58;70.15;96944.91;4881917;29;19967;-71
2022/05/08 02:40:06;;;;;;;;;;;;;;;9.52;70.35;96936.03;4881313;29;19971;-71
2022/05/08 02:42:32;;;;;;;;;;;;;;;9.50;70.22;96934.63;4881409;29;19963;-71
2022/05/08 02:44:58;;;;;;;;;;;;;;;9.47;70.62;96938.44;4881721;29;19958;-71
2022/05/08 02:47:24;;;;;;;;;;;;;;;9.42;70.51;96932.97;4880958;29;20032;-71
2022/05/08 02:49:50;;;;;;;;;;;;;;;9.39;70.59;96930.78;4881408;29;20407;-71
2022/05/08 02:52:15;;;;;;;;;;;;;;;9.37;70.53;96935.41;4881395;29;20126;-71
2022/05/08 02:54:41;;;;;;;;;;;;;;;9.31;70.66;96931.75;4881620;29;19964;-71
2022/05/08 02:59:51;;;;;;;;;;;;;;;9.28;71.02;96940.00;4881108;29;19977;-71
2022/05/08 03:02:17;;;;;;;;;;;;;;;9.26;70.06;96931.56;4881181;29;19959;-71
2022/05/08 03:04:45;;;;;;;;;;;;;;;9.23;70.79;96945.00;4881069;29;19954;-71
2022/05/08 03:07:11;;;;;;;;;;;;;;;9.22;70.67;96937.34;4880764;29;20402;-71
2022/05/08 03:09:37;;;;;;;;;;;;;;;9.21;70.67;96941.00;4881168;29;19958;-71
2022/05/08 03:12:04;;;;;;;;;;;;;;;9.19;70.62;96937.75;4880841;29;20394;-71
2022/05/08 03:14:29;;;;;;;;;;;;;;;9.17;70.77;96943.19;4880976;29;19954;-71
2022/05/08 03:16:55;;;;;;;;;;;;;;;9.16;70.64;96944.19;4880838;29;20352;-71
2022/05/08 03:19:22;;;;;;;;;;;;;;;9.12;71.00;96949.00;4880858;29;19984;-71
2022/05/08 03:21:51;;;;;;;;;;;;;;;9.09;71.46;96952.03;4880701;29;20013;-71
2022/05/08 03:24:17;;;;;;;;;;;;;;;9.06;71.00;96943.75;4880680;29;19962;-71
2022/05/08 03:26:43;;;;;;;;;;;;;;;9.02;71.20;96943.34;4880869;29;20019;-71
2022/05/08 03:29:09;;;;;;;;;;;;;;;9.00;71.22;96940.09;4880867;29;19993;-71
2022/05/08 03:31:35;;;;;;;;;;;;;;;8.98;71.84;96938.69;4880322;29;19951;-71
2022/05/08 03:34:01;;;;;;;;;;;;;;;8.95;72.41;96945.13;4880686;29;19961;-71
2022/05/08 03:36:26;;;;;;;;;;;;;;;8.92;72.59;96935.03;4880376;29;20409;-71
2022/05/08 03:38:52;;;;;;;;;;;;;;;8.88;72.33;96936.44;4880428;29;20015;-71
2022/05/08 03:41:19;;;;;;;;;;;;;;;8.85;73.01;96935.00;4880516;29;20395;-71
2022/05/08 03:43:45;;;;;;;;;;;;;;;8.84;72.51;96933.41;4880345;29;20312;-71
2022/05/08 03:46:13;;;;;;;;;;;;;;;8.84;72.82;96932.59;4880526;29;19967;-71
2022/05/08 03:48:42;;;;;;;;;;;;;;;8.81;72.11;96923.31;4880720;29;19961;-71
2022/05/08 03:51:08;;;;;;;;;;;;;;;8.81;72.49;96925.13;4880600;29;19965;-71
2022/05/08 03:53:34;;;;;;;;;;;;;;;8.81;73.07;96933.00;4879140;29;19956;-71
2022/05/08 03:56:00;;;;;;;;;;;;;;;8.80;73.64;96936.59;4880345;29;19958;-71
2022/05/08 03:58:26;;;;;;;;;;;;;;;8.79;72.97;96948.88;4879489;29;19960;-71
2022/05/08 04:00:52;;;;;;;;;;;;;;;8.78;73.03;96941.19;4880088;29;20322;-71
2022/05/08 04:03:18;;;;;;;;;;;;;;;8.73;73.94;96947.84;4880198;29;19958;-71
2022/05/08 04:05:44;;;;;;;;;;;;;;;8.71;73.49;96939.41;4880189;29;19961;-71
2022/05/08 04:08:10;;;;;;;;;;;;;;;8.67;73.56;96939.94;4880040;29;19965;-71
2022/05/08 04:10:36;;;;;;;;;;;;;;;8.66;73.57;96939.16;4880262;29;19959;-71
2022/05/08 04:13:02;;;;;;;;;;;;;;;8.65;73.43;96945.38;4880284;29;19962;-71
2022/05/08 04:18:12;;;;;;;;;;;;;;;8.67;73.20;96946.00;4880263;29;19975;-71
2022/05/08 04:20:38;;;;;;;;;;;;;;;8.68;73.23;96946.81;4882475;29;20391;-71
2022/05/08 04:25:54;;;;;;;;;;;;;;;8.69;73.32;96941.38;4889253;29;19960;-71
2022/05/08 04:28:20;;;;;;;;;;;;;;;8.68;73.30;96950.22;4887077;29;19965;-71
2022/05/08 04:30:47;;;;;;;;;;;;;;;8.66;73.32;96947.00;4886522;29;20066;-71
2022/05/08 04:33:13;;;;;;;;;;;;;;;8.66;73.44;96944.38;4872070;29;19961;-71
2022/05/08 04:35:39;;;;;;;;;;;;;;;8.70;73.24;96952.66;4888214;29;19962;-71
2022/05/08 04:38:04;;;;;;;;;;;;;;;8.71;73.55;96946.41;4894150;29;19962;-71
2022/05/08 04:40:30;;;;;;;;;;;;;;;8.73;73.66;96949.63;4888056;29;20015;-71
2022/05/08 04:42:57;;;;;;;;;;;;;;;8.76;73.41;96943.22;4885405;29;19960;-71
2022/05/08 04:45:22;;;;;;;;;;;;;;;8.78;73.71;96954.28;4891393;29;19953;-71
2022/05/08 04:47:48;;;;;;;;;;;;;;;8.77;74.33;96955.28;4889409;29;19978;-71
2022/05/08 04:50:14;;;;;;;;;;;;;;;8.78;74.24;96954.28;4890890;29;20407;-71
2022/05/08 04:52:40;;;;;;;;;;;;;;;8.78;74.38;96951.66;4888549;29;19966;-71
2022/05/08 04:55:06;;;;;;;;;;;;;;;8.79;74.58;96948.06;4889458;29;19966;-71
2022/05/08 04:57:32;;;;;;;;;;;;;;;8.80;74.18;96945.25;4887271;29;19959;-71
2022/05/08 04:59:58;;;;;;;;;;;;;;;8.82;74.09;96951.09;4887838;29;20034;-71
2022/05/08 05:02:24;;;;;;;;;;;;;;;8.85;73.63;96952.53;4893308;29;19949;-72
2022/05/08 05:04:50;;;;;;;;;;;;;;;8.89;73.97;96953.75;4889716;29;20020;-71
2022/05/08 05:07:16;;;;;;;;;;;;;;;8.92;73.90;96954.19;4892003;29;19962;-71
2022/05/08 05:09:42;;;;;;;;;;;;;;;8.97;73.98;96956.19;4888727;29;20474;-71
2022/05/08 05:12:08;;;;;;;;;;;;;;;9.01;74.79;96964.44;4887888;29;20342;-71
2022/05/08 05:14:37;;;;;;;;;;;;;;;9.05;74.49;96961.28;4893014;29;19961;-71
2022/05/08 05:17:03;;;;;;;;;;;;;;;9.10;74.68;96965.91;4897966;29;19962;-71
2022/05/08 05:19:29;;;;;;;;;;;;;;;9.15;74.84;96968.75;4890196;29;20021;-71
2022/05/08 05:21:55;;;;;;;;;;;;;;;9.19;75.38;96980.44;4884848;29;19993;-71
2022/05/08 05:24:21;;;;;;;;;;;;;;;9.23;74.72;96981.66;4883144;29;20327;-71
2022/05/08 05:26:46;;;;;;;;;;;;;;;9.28;74.27;96975.81;4891502;29;19958;-71
2022/05/08 05:29:14;;;;;;;;;;;;;;;9.40;74.77;96991.78;4882824;29;20011;-71
2022/05/08 05:31:40;;;;;;;;;;;;;;;9.45;74.75;96984.97;4882757;29;20325;-71
2022/05/08 05:34:15;;;;;;;;;;;;;;;9.52;74.11;96977.91;4882872;29;19961;-71
2022/05/08 05:36:41;;;;;;;;;;;;;;;9.61;74.15;96985.59;4882576;29;20483;-71
2022/05/08 05:39:07;;;;;;;;;;;;;;;9.69;74.13;96980.97;4882678;29;20417;-71
2022/05/08 05:41:33;;;;;;;;;;;;;;;9.79;74.26;96980.59;4882519;29;20015;-71
2022/05/08 05:43:59;;;;;;;;;;;;;;;9.93;73.93;96977.00;4882504;29;19965;-71
2022/05/08 05:49:09;;;;;;;;;;;;;;;10.15;74.19;96979.41;4882566;29;19962;-72
2022/05/08 05:51:35;;;;;;;;;;;;;;;10.21;74.06;96973.38;4883005;29;20327;-71
2022/05/08 05:54:01;;;;;;;;;;;;;;;10.33;73.58;96973.56;4882257;29;19957;-71
2022/05/08 05:56:27;;;;;;;;;;;;;;;10.50;74.13;96984.47;4882557;29;20110;-71
2022/05/08 05:58:53;;;;;;;;;;;;;;;10.69;74.57;96986.25;4882428;29;20052;-71
2022/05/08 06:01:19;;;;;;;;;;;;;;;11.04;73.35;96985.16;4882330;29;20027;-71
2022/05/08 06:03:44;;;;;;;;;;;;;;;11.49;71.94;96979.91;4882149;29;20035;-71
2022/05/08 06:06:10;;;;;;;;;;;;;;;11.84;71.20;96976.88;4882651;29;19970;-71
2022/05/08 06:08:36;;;;;;;;;;;;;;;12.05;70.28;96978.38;4882395;29;19957;-71
2022/05/08 06:11:02;;;;;;;;;;;;;;;12.26;69.88;96971.94;4885024;29;20010;-71
2022/05/08 06:13:28;;;;;;;;;;;;;;;12.35;69.17;96963.56;4882007;29;19964;-71
2022/05/08 06:15:54;;;;;;;;;;;;;;;12.39;68.70;96966.56;4871700;29;20361;-71
2022/05/08 06:18:19;;;;;;;;;;;;;;;12.26;68.17;96967.47;4881904;29;20373;-71
2022/05/08 06:20:45;;;;;;;;;;;;;;;12.23;69.14;96983.69;4881307;29;20377;-71
2022/05/08 06:23:11;;;;;;;;;;;;;;;12.29;69.04;96982.03;4881875;29;20458;-71
2022/05/08 06:25:41;;;;;;;;;;;;;;;12.45;69.60;96984.13;4881799;29;20014;-71
2022/05/08 06:28:08;;;;;;;;;;;;;;;12.55;68.82;96979.16;4881969;29;20282;-71
2022/05/08 06:30:34;;;;;;;;;;;;;;;12.64;69.15;96978.88;4881657;29;19955;-71
2022/05/08 06:33:00;;;;;;;;;;;;;;;12.76;69.83;96988.44;4881743;29;19953;-71
2022/05/08 06:35:26;;;;;;;;;;;;;;;12.83;68.71;96974.41;4881707;29;20461;-71
2022/05/08 06:37:52;;;;;;;;;;;;;;;12.71;67.68;96969.91;4881798;29;19955;-71
2022/05/08 06:40:18;;;;;;;;;;;;;;;12.54;69.31;96995.97;4881533;29;20126;-71
2022/05/08 06:42:44;;;;;;;;;;;;;;;12.46;70.09;96990.97;4881548;29;19966;-71
2022/05/08 06:45:10;;;;;;;;;;;;;;;12.44;71.06;97008.00;4880742;29;19963;-71
2022/05/08 06:47:36;;;;;;;;;;;;;;;12.46;70.62;97005.97;4882754;29;20005;-71
2022/05/08 06:50:02;;;;;;;;;;;;;;;12.51;70.61;97003.47;4881385;29;19963;-71
2022/05/08 06:52:28;;;;;;;;;;;;;;;12.58;70.22;96998.97;4881101;29;19958;-71
2022/05/08 06:54:54;;;;;;;;;;;;;;;12.66;69.94;97006.59;4881187;29;19991;-72
2022/05/08 06:57:20;;;;;;;;;;;;;;;12.72;71.54;97015.44;4881313;29;19963;-71
2022/05/08 07:02:30;;;;;;;;;;;;;;;12.61;70.29;97011.69;4868508;29;19973;-71
2022/05/08 07:04:56;;;;;;;;;;;;;;;12.60;70.70;97018.00;4881564;29;19975;-71
2022/05/08 07:07:23;;;;;;;;;;;;;;;12.63;70.23;97022.00;4881085;29;20047;-71
2022/05/08 07:09:51;;;;;;;;;;;;;;;12.71;70.18;97021.72;4880910;29;19967;-71
2022/05/08 07:12:17;;;;;;;;;;;;;;;12.78;69.78;97006.66;4880768;29;19962;-71
2022/05/08 07:14:42;;;;;;;;;;;;;;;12.86;69.47;97013.47;4881002;29;19979;-71
2022/05/08 07:17:10;;;;;;;;;;;;;;;12.82;69.20;97007.84;4880441;29;19963;-71
2022/05/08 07:19:36;;;;;;;;;;;;;;;12.73;69.74;97014.44;4881164;29;20329;-71
2022/05/08 07:22:02;;;;;;;;;;;;;;;12.79;69.36;97021.44;4892163;29;19980;-71
2022/05/08 07:24:27;;;;;;;;;;;;;;;12.87;69.56;97025.59;4892965;29;19982;-71
2022/05/08 07:26:53;;;;;;;;;;;;;;;12.95;70.77;97039.28;4888325;29;19961;-71
2022/05/08 07:29:19;;;;;;;;;;;;;;;12.96;69.24;97030.38;4889096;29;19972;-71
2022/05/08 07:31:45;;;;;;;;;;;;;;;13.02;69.54;97038.41;4891909;29;20420;-71
2022/05/08 07:36:56;;;;;;;;;;;;;;;13.10;69.46;97038.13;4875057;29;19966;-71
2022/05/08 07:39:22;;;;;;;;;;;;;;;13.23;69.31;97032.75;4888507;29;19963;-71
2022/05/08 07:41:47;;;;;;;;;;;;;;;13.36;69.38;97035.25;4890239;29;20029;-71
2022/05/08 07:44:13;;;;;;;;;;;;;;;13.53;69.27;97032.81;4893265;29;19998;-71
2022/05/08 07:46:39;;;;;;;;;;;;;;;13.70;69.03;97034.84;4883990;29;20330;-71
2022/05/08 07:49:05;;;;;;;;;;;;;;;13.76;68.45;97023.41;4891307;29;20013;-72
2022/05/08 07:51:31;;;;;;;;;;;;;;;13.85;68.07;97027.31;4895230;29;20008;-72
2022/05/08 07:53:58;;;;;;;;;;;;;;;13.96;68.73;97029.19;4883383;29;20456;-71
2022/05/08 07:56:24;;;;;;;;;;;;;;;14.06;68.19;97027.84;4891220;29;20325;-71
2022/05/08 07:58:49;;;;;;;;;;;;;;;14.14;68.15;97027.53;4895464;29;20010;-71
2022/05/08 08:01:15;;;;;;;;;;;;;;;14.25;67.92;97023.28;4886895;29;20326;-71
2022/05/08 08:03:41;;;;;;;;;;;;;;;14.37;67.94;97026.75;4887078;29;20416;-72
2022/05/08 08:06:07;;;;;;;;;;;;;;;14.49;67.77;97029.41;4886390;29;20404;-71
2022/05/08 08:08:33;;;;;;;;;;;;;;;14.62;67.11;97023.94;4892614;29;19960;-71
2022/05/08 08:11:03;;;;;;;;;;;;;;;14.71;67.31;97030.47;4889646;29;19966;-71
2022/05/08 08:13:31;;;;;;;;;;;;;;;14.81;67.79;97036.00;4890117;29;19970;-71
2022/05/08 08:15:58;;;;;;;;;;;;;;;14.92;67.88;97030.94;4885135;29;19958;-71
2022/05/08 08:18:23;;;;;;;;;;;;;;;15.04;66.67;97023.81;4885286;29;19967;-72
2022/05/08 08:20:50;;;;;;;;;;;;;;;15.20;66.24;97019.63;4893738;29;19985;-71
2022/05/08 08:23:16;;;;;;;;;;;;;;;15.39;66.24;97025.56;4887655;29;19960;-71
2022/05/08 08:25:43;;;;;;;;;;;;;;;15.60;65.84;97024.94;4885151;29;19957;-71
2022/05/08 08:28:09;;;;;;;;;;;;;;;15.81;64.42;97007.66;4888853;29;20320;-71
2022/05/08 08:30:35;;;;;;;;;;;;;;;16.04;65.08;97016.47;4886027;29;19969;-71
2022/05/08 08:33:00;;;;;;;;;;;;;;;16.23;64.06;97009.94;4891686;29;19965;-71
2022/05/08 08:35:26;;;;;;;;;;;;;;;16.39;63.67;97004.88;4889094;29;19955;-72
2022/05/08 08:37:52;;;;;;;;;;;;;;;16.58;63.08;97000.13;4890772;29;20007;-71
2022/05/08 08:40:18;;;;;;;;;;;;;;;16.75;61.99;96982.38;4884124;29;20305;-72
2022/05/08 08:42:44;;;;;;;;;;;;;;;16.84;61.93;96985.47;4893070;29;19980;-71
2022/05/08 08:47:55;;;;;;;;;;;;;;;17.16;58.81;96945.03;4897459;29;19959;-71
2022/05/08 08:50:25;;;;;;;;;;;;;;;17.24;60.98;96971.13;4893837;29;20421;-71
2022/05/08 08:52:51;;;;;;;;;;;;;;;17.27;54.91;96903.53;4886792;29;19965;-71
2022/05/08 08:55:17;;;;;;;;;;;;;;;17.30;58.64;96953.41;4891902;29;19959;-71
2022/05/08 08:57:43;;;;;;;;;;;;;;;17.32;57.60;96930.88;4893061;29;19958;-71
2022/05/08 09:00:09;;;;;;;;;;;;;;;17.40;59.50;96964.91;4895547;29;19960;-72
2022/05/08 09:02:35;;;;;;;;;;;;;;;17.61;57.96;96955.31;4898821;29;19975;-71
2022/05/08 09:05:04;;;;;;;;;;;;;;;17.80;56.74;96939.06;4891531;29;19965;-71
2022/05/08 09:07:40;;;;;;;;;;;;;;;17.87;56.21;96921.13;4889636;29;19963;-71
2022/05/08 09:10:07;;;;;;;;;;;;;;;17.90;56.12;96931.22;4896641;29;19969;-71
2022/05/08 09:12:33;;;;;;;;;;;;;;;17.92;55.82;96923.81;4893589;29;19953;-72
2022/05/08 09:14:59;;;;;;;;;;;;;;;17.90;52.88;96890.63;4897179;29;19966;-71
2022/05/08 09:17:42;;;;;;;;;;;;;;;17.95;54.75;96914.53;4888764;29;20404;-71
2022/05/08 09:20:22;;;;;;;;;;;;;;;18.04;55.67;96929.75;4890507;29;21696;-71
2022/05/08 09:23:12;;;;;;;;;;;;;;;18.16;54.72;96912.84;4882716;29;20467;-71
2022/05/08 09:25:48;;;;;;;;;;;;;;;18.30;55.45;96921.97;4875713;29;20439;-71
2022/05/08 09:28:15;;;;;;;;;;;;;;;18.39;54.67;96928.38;4882674;29;19954;-71
2022/05/08 09:31:01;;;;;;;;;;;;;;;18.53;53.57;96910.16;4882796;29;19953;-71
2022/05/08 09:33:31;;;;;;;;;;;;;;;18.62;52.49;96895.31;4882742;29;19968;-71
2022/05/08 09:35:59;;;;;;;;;;;;;;;18.65;51.83;96894.03;4882804;29;19958;-72
2022/05/08 09:38:44;;;;;;;;;;;;;;;18.63;50.38;96873.03;4882903;29;19977;-71
2022/05/08 09:41:10;;;;;;;;;;;;;;;18.61;50.84;96882.31;4882461;29;19971;-71
2022/05/08 09:43:37;;;;;;;;;;;;;;;18.60;51.64;96892.13;4882745;29;19955;-71
2022/05/08 09:46:03;;;;;;;;;;;;;;;18.65;50.34;96870.13;4882354;29;20436;-71
2022/05/08 09:48:30;;;;;;;;;;;;;;;18.74;50.93;96873.88;4882526;29;19971;-71
2022/05/08 09:50:58;;;;;;;;;;;;;;;18.95;50.32;96871.31;4882605;29;19956;-71
2022/05/08 09:53:24;;;;;;;;;;;;;;;19.11;50.35;96857.00;4882295;29;19962;-71
2022/05/08 09:55:54;;;;;;;;;;;;;;;19.21;49.56;96850.91;4866773;29;19962;-71
2022/05/08 09:58:20;;;;;;;;;;;;;;;19.32;49.25;96847.22;4882437;29;20327;-71
2022/05/08 10:00:51;;;;;;;;;;;;;;;19.29;47.23;96829.13;4882174;29;19959;-71
2022/05/08 10:03:17;;;;;;;;;;;;;;;19.30;48.64;96846.69;4882198;29;19986;-71
2022/05/08 10:05:43;;;;;;;;;;;;;;;19.28;46.74;96870.09;4882274;29;19963;-71
2022/05/08 10:08:12;;;;;;;;;;;;;;;19.40;49.22;96915.84;4882056;29;20321;-71
2022/05/08 10:13:54;;;;;;;;;;;;;;;19.36;44.06;96890.03;4872350;29;19958;-71
2022/05/08 10:16:43;;;;;;;;;;;;;;;19.49;46.73;96918.78;4881905;29;19964;-71
2022/05/08 10:19:22;;;;;;;;;;;;;;;19.65;46.87;96907.13;4874383;29;20419;-71
2022/05/08 10:21:56;;;;;;;;;;;;;;;19.77;44.63;96888.25;4886518;29;19980;-71
2022/05/08 10:24:26;;;;;;;;;;;;;;;19.99;45.58;96897.81;4892844;29;20038;-71
2022/05/08 10:27:11;;;;;;;;;;;;;;;20.01;44.99;96909.81;4892431;29;20303;-71
2022/05/08 10:29:40;;;;;;;;;;;;;;;20.10;45.26;96906.63;4895227;29;20435;-71
2022/05/08 10:32:06;;;;;;;;;;;;;;;20.23;44.10;96882.09;4871960;29;20433;-71
2022/05/08 10:34:34;;;;;;;;;;;;;;;20.26;42.69;96892.19;4889871;29;20325;-71
2022/05/08 10:37:11;;;;;;;;;;;;;;;20.08;43.90;96973.44;4896955;29;19969;-71
2022/05/08 10:39:38;;;;;;;;;;;;;;;20.22;44.20;96982.50;4893174;29;19960;-71
2022/05/08 10:42:04;;;;;;;;;;;;;;;20.41;44.96;96988.09;4889245;29;19979;-71
2022/05/08 10:44:34;;;;;;;;;;;;;;;20.62;43.10;96974.75;4888276;29;19967;-71
2022/05/08 10:47:19;;;;;;;;;;;;;;;20.75;41.75;96968.88;4890525;29;19967;-71
2022/05/08 10:49:45;;;;;;;;;;;;;;;20.81;41.99;96970.47;4871291;29;19978;-71
2022/05/08 10:52:11;;;;;;;;;;;;;;;20.90;42.83;96976.03;4890529;29;19975;-71
2022/05/08 10:54:37;;;;;;;;;;;;;;;21.01;41.51;96966.13;4889992;29;19955;-71
2022/05/08 10:57:03;;;;;;;;;;;;;;;20.70;41.68;96984.88;4895435;29;20011;-71
2022/05/08 10:59:49;;;;;;;;;;;;;;;20.48;40.11;96969.16;4884913;29;20463;-71
2022/05/08 11:02:15;;;;;;;;;;;;;;;20.33;39.80;96977.97;4888133;29;19975;-72
2022/05/08 11:04:50;;;;;;;;;;;;;;;20.34;41.92;96984.09;4892369;29;20374;-71
2022/05/08 11:07:21;;;;;;;;;;;;;;;20.39;40.82;96973.41;4898233;29;19976;-71
2022/05/08 11:09:47;;;;;;;;;;;;;;;20.31;39.44;96966.78;4888802;29;19959;-71
2022/05/08 11:12:13;;;;;;;;;;;;;;;20.48;42.33;96985.16;4886303;29;19964;-71
2022/05/08 11:14:40;;;;;;;;;;;;;;;20.79;42.74;96995.78;4890816;29;19957;-71
2022/05/08 11:17:16;;;;;;;;;;;;;;;21.11;42.08;96986.66;4895849;29;20416;-71
2022/05/08 11:19:57;;;;;;;;;;;;;;;21.19;40.91;96978.09;4889570;29;19961;-71
2022/05/08 11:22:22;;;;;;;;;;;;;;;21.29;40.57;96978.84;4886390;29;19992;-71
2022/05/08 11:24:49;;;;;;;;;;;;;;;21.50;41.29;96984.09;4874894;29;19959;-71
2022/05/08 11:27:15;;;;;;;;;;;;;;;21.64;41.52;96982.41;4892904;29;19967;-71
2022/05/08 11:29:47;;;;;;;;;;;;;;;21.61;41.32;96984.84;4886092;29;20329;-71
2022/05/08 11:37:59;;;;;;;;;;;;;;;21.45;41.92;96986.78;4888669;29;19966;-71
2022/05/08 11:40:26;;;;;;;;;;;;;;;21.25;40.61;96983.13;4879340;29;20304;-71
2022/05/08 11:42:52;;;;;;;;;;;;;;;21.16;40.40;96978.63;4891397;29;19983;-72
2022/05/08 11:45:18;;;;;;;;;;;;;;;21.24;40.49;96991.38;4889121;29;19965;-71
2022/05/08 11:47:54;;;;;;;;;;;;;;;21.14;37.87;96975.41;4886524;29;19958;-71
2022/05/08 11:50:20;;;;;;;;;;;;;;;21.22;38.77;96974.88;4889283;29;19964;-71
2022/05/08 11:52:46;;;;;;;;;;;;;;;20.86;38.31;96964.31;4894243;29;19965;-71
2022/05/08 11:55:13;;;;;;;;;;;;;;;20.85;39.66;96984.84;4891398;29;19953;-71
2022/05/08 11:57:43;;;;;;;;;;;;;;;21.14;41.38;96988.75;4888026;29;19953;-71
2022/05/08 12:00:13;;;;;;;;;;;;;;;21.52;41.16;96983.81;4888846;29;19959;-71
2022/05/08 12:02:42;;;;;;;;;;;;;;;21.65;39.73;96978.69;4888806;29;20332;-71
2022/05/08 12:05:18;;;;;;;;;;;;;;;21.47;39.44;96965.97;4883106;29;20348;-71
2022/05/08 12:07:48;;;;;;;;;;;;;;;21.19;39.81;96978.09;4888348;29;20448;-71
2022/05/08 12:10:14;;;;;;;;;;;;;;;21.04;39.08;96963.72;4893432;29;19952;-71
2022/05/08 12:12:41;;;;;;;;;;;;;;;20.99;39.38;96989.59;4889911;29;19965;-71
2022/05/08 12:15:07;;;;;;;;;;;;;;;20.87;39.30;96973.91;4866204;29;19954;-71
2022/05/08 12:17:39;;;;;;;;;;;;;;;20.91;40.88;96985.63;4890045;29;19968;-71
2022/05/08 12:20:28;;;;;;;;;;;;;;;20.96;39.85;96982.16;4872762;29;19964;-71
2022/05/08 12:22:58;;;;;;;;;;;;;;;21.06;39.26;96976.78;4879667;29;20424;-71
2022/05/08 12:25:24;;;;;;;;;;;;;;;21.08;39.38;96967.47;4879810;29;20321;-71
2022/05/08 12:27:50;;;;;;;;;;;;;;;21.31;39.66;96977.75;4880009;29;20008;-71
2022/05/08 12:30:16;;;;;;;;;;;;;;;21.42;38.46;96974.81;4879881;29;19965;-71
2022/05/08 12:32:42;;;;;;;;;;;;;;;21.30;40.70;96974.28;4879938;29;19963;-71
2022/05/08 12:35:08;;;;;;;;;;;;;;;21.28;40.73;96971.91;4879871;29;20058;-71
2022/05/08 12:37:34;;;;;;;;;;;;;;;21.29;40.13;96970.00;4879918;29;19957;-71
2022/05/08 12:40:00;;;;;;;;;;;;;;;21.48;40.09;96965.72;4879910;29;19959;-71
2022/05/08 12:42:26;;;;;;;;;;;;;;;21.64;39.37;96957.59;4879647;29;20429;-71
2022/05/08 12:44:52;;;;;;;;;;;;;;;21.68;39.61;96959.44;4879577;29;20049;-71
2022/05/08 12:47:21;;;;;;;;;;;;;;;21.66;39.23;96974.94;4879419;29;19966;-71
2022/05/08 12:49:48;;;;;;;;;;;;;;;21.45;38.61;96960.09;4879730;29;20330;-71
2022/05/08 12:52:14;;;;;;;;;;;;;;;21.44;39.91;96969.19;4879498;29;19973;-71
2022/05/08 12:54:40;;;;;;;;;;;;;;;21.52;39.79;96976.59;4880016;29;19967;-71
2022/05/08 12:57:08;;;;;;;;;;;;;;;21.40;38.71;96960.91;4879127;29;19955;-71
2022/05/08 12:59:44;;;;;;;;;;;;;;;21.44;41.07;96983.34;4879099;29;19956;-71
2022/05/08 13:02:11;;;;;;;;;;;;;;;21.49;40.73;96964.63;4879303;29;19975;-71
2022/05/08 13:04:41;;;;;;;;;;;;;;;21.45;39.62;96958.22;4879647;29;19962;-71
2022/05/08 13:07:07;;;;;;;;;;;;;;;21.39;39.43;96958.50;4863986;29;20323;-71
2022/05/08 13:09:33;;;;;;;;;;;;;;;21.44;39.29;96959.31;4879553;29;19965;-71
2022/05/08 13:11:59;;;;;;;;;;;;;;;21.38;39.07;96954.25;4879462;29;19959;-71
2022/05/08 13:14:29;;;;;;;;;;;;;;;21.47;39.23;96955.28;4878829;29;21249;-71
2022/05/08 13:16:56;;;;;;;;;;;;;;;21.60;39.35;96961.91;4879654;29;19972;-71
2022/05/08 13:19:21;;;;;;;;;;;;;;;21.37;38.39;96963.31;4879500;29;20421;-71